createdAt,value
2018-07-30T00:00:30.670Z,100121.05
2018-07-30T00:03:00.554Z,100128.52
2018-07-30T00:05:30.272Z,100126.44
2018-07-30T00:08:00.253Z,100124.75
2018-07-30T00:10:30.576Z,100128.59
2018-07-30T00:13:00.252Z,100124.97
2018-07-30T00:15:29.979Z,100122.19
2018-07-30T00:18:00.054Z,100128.38
2018-07-30T00:20:29.925Z,100126.89
2018-07-30T00:22:59.592Z,100129.16
2018-07-30T00:25:30.009Z,100128.84
2018-07-30T00:27:59.819Z,100143.56
2018-07-30T00:30:30.252Z,100140.84
2018-07-30T00:32:59.808Z,100145.03
2018-07-30T00:35:29.664Z,100143.70
2018-07-30T00:38:00.085Z,100139.45
2018-07-30T00:40:29.690Z,100140.22
2018-07-30T00:43:00.164Z,100139.17
2018-07-30T00:45:29.749Z,100142.73
2018-07-30T00:47:59.559Z,100142.48
2018-07-30T00:50:29.480Z,100140.67
2018-07-30T00:52:59.803Z,100140.33
2018-07-30T00:55:30.010Z,100141.54
2018-07-30T00:57:59.747Z,100139.17
2018-07-30T01:00:29.648Z,100137.56
2018-07-30T01:02:59.555Z,100131.61
2018-07-30T01:05:29.779Z,100136.65
2018-07-30T01:07:59.685Z,100135.39
2018-07-30T01:10:29.524Z,100141.56
2018-07-30T01:12:59.247Z,100140.58
2018-07-30T01:15:29.034Z,100144.90
2018-07-30T01:17:59.902Z,100151.97
2018-07-30T01:20:29.512Z,100149.00
2018-07-30T01:22:59.567Z,100150.55
2018-07-30T01:25:29.831Z,100156.25
2018-07-30T01:27:59.448Z,100162.55
2018-07-30T01:30:29.867Z,100154.28
2018-07-30T01:32:59.484Z,100158.33
2018-07-30T01:35:29.529Z,100146.81
2018-07-30T01:37:59.627Z,100149.66
2018-07-30T01:40:29.497Z,100150.52
2018-07-30T01:42:59.687Z,100156.63
2018-07-30T01:45:29.451Z,100155.11
2018-07-30T01:48:00.084Z,100156.06
2018-07-30T01:50:29.676Z,100158.31
2018-07-30T01:52:59.472Z,100163.33
2018-07-30T01:55:29.158Z,100164.16
2018-07-30T01:57:59.488Z,100168.38
2018-07-30T02:00:29.402Z,100170.08
2018-07-30T02:02:59.797Z,100176.53
2018-07-30T02:05:30.360Z,100175.76
2018-07-30T02:08:00.301Z,100183.94
2018-07-30T02:10:30.131Z,100187.09
2018-07-30T02:13:00.437Z,100184.59
2018-07-30T02:15:30.087Z,100184.76
2018-07-30T02:18:00.006Z,100187.25
2018-07-30T02:20:29.620Z,100181.19
2018-07-30T02:22:59.421Z,100182.10
2018-07-30T02:25:29.442Z,100180.92
2018-07-30T02:27:59.044Z,100188.89
2018-07-30T02:30:28.843Z,100184.64
2018-07-30T02:32:58.851Z,100188.25
2018-07-30T02:35:28.509Z,100189.47
2018-07-30T02:37:58.395Z,100191.05
2018-07-30T02:40:29.321Z,100193.86
2018-07-30T02:42:59.107Z,100190.54
2018-07-30T02:45:29.499Z,100196.66
2018-07-30T02:47:59.394Z,100198.43
2018-07-30T02:50:29.321Z,100197.13
2018-07-30T02:52:58.930Z,100193.63
2018-07-30T02:55:28.816Z,100196.45
2018-07-30T02:57:58.709Z,100197.31
2018-07-30T03:00:28.457Z,100198.80
2018-07-30T03:02:58.426Z,100200.95
2018-07-30T03:05:28.851Z,100202.38
2018-07-30T03:07:58.814Z,100208.09
2018-07-30T03:10:28.614Z,100213.78
2018-07-30T03:12:59.270Z,100216.55
2018-07-30T03:15:29.048Z,100216.72
2018-07-30T03:17:58.759Z,100222.18
2018-07-30T03:20:28.500Z,100219.53
2018-07-30T03:22:58.108Z,100218.33
2018-07-30T03:25:28.333Z,100216.53
2018-07-30T03:27:58.157Z,100222.23
2018-07-30T03:30:27.988Z,100218.25
2018-07-30T03:32:57.868Z,100213.23
2018-07-30T03:35:28.159Z,100213.28
2018-07-30T03:37:58.363Z,100213.84
2018-07-30T03:40:28.856Z,100215.99
2018-07-30T03:42:58.523Z,100219.36
2018-07-30T03:45:28.194Z,100220.95
2018-07-30T03:47:58.048Z,100222.24
2018-07-30T03:50:27.892Z,100224.97
2018-07-30T03:52:57.724Z,100220.81
2018-07-30T03:55:27.363Z,100227.12
2018-07-30T03:57:57.269Z,100224.41
2018-07-30T04:00:28.118Z,100228.48
2018-07-30T04:02:58.120Z,100221.20
2018-07-30T04:05:28.026Z,100222.84
2018-07-30T04:07:57.786Z,100221.20
2018-07-30T04:10:27.572Z,100227.63
2018-07-30T04:12:58.015Z,100227.83
2018-07-30T04:15:27.572Z,100230.39
2018-07-30T04:17:57.694Z,100226.57
2018-07-30T04:20:28.105Z,100225.05
2018-07-30T04:22:57.907Z,100231.45
2018-07-30T04:25:28.158Z,100228.44
2018-07-30T04:27:57.837Z,100226.48
2018-07-30T04:30:27.647Z,100226.98
2018-07-30T04:32:57.479Z,100222.35
2018-07-30T04:35:27.359Z,100229.05
2018-07-30T04:37:57.160Z,100225.53
2018-07-30T04:40:27.573Z,100229.86
2018-07-30T04:42:57.445Z,100234.83
2018-07-30T04:45:27.436Z,100236.56
2018-07-30T04:47:57.092Z,100239.61
2018-07-30T04:50:26.765Z,100232.50
2018-07-30T04:52:56.686Z,100228.65
2018-07-30T04:55:26.574Z,100224.13
2018-07-30T04:57:57.053Z,100229.23
2018-07-30T05:00:26.670Z,100233.42
2018-07-30T05:02:56.282Z,100234.02
2018-07-30T05:05:26.798Z,100234.59
2018-07-30T05:07:56.524Z,100236.36
2018-07-30T05:10:26.920Z,100234.60
2018-07-30T05:12:56.528Z,100237.67
2018-07-30T05:15:26.296Z,100244.42
2018-07-30T05:17:55.814Z,100239.48
2018-07-30T05:20:25.696Z,100245.27
2018-07-30T05:22:55.622Z,100244.23
2018-07-30T05:25:25.244Z,100253.20
2018-07-30T05:27:55.361Z,100243.36
2018-07-30T05:30:25.267Z,100256.07
2018-07-30T05:32:55.953Z,100253.20
2018-07-30T05:35:25.876Z,100264.13
2018-07-30T05:37:55.921Z,100265.13
2018-07-30T05:40:25.833Z,100266.72
2018-07-30T05:42:55.774Z,100274.95
2018-07-30T05:45:25.766Z,100281.28
2018-07-30T05:47:55.578Z,100278.34
2018-07-30T05:50:25.288Z,100276.55
2018-07-30T05:52:56.173Z,100274.00
2018-07-30T05:55:26.019Z,100279.89
2018-07-30T05:57:55.760Z,100283.23
2018-07-30T06:00:25.595Z,100278.44
2018-07-30T06:02:56.301Z,100278.37
2018-07-30T06:05:25.918Z,100281.39
2018-07-30T06:07:55.545Z,100281.05
2018-07-30T06:10:25.971Z,100285.55
2018-07-30T06:12:56.153Z,100279.81
2018-07-30T06:15:26.001Z,100284.45
2018-07-30T06:17:56.043Z,100280.72
2018-07-30T06:20:25.848Z,100292.17
2018-07-30T06:22:55.666Z,100287.25
2018-07-30T06:25:26.165Z,100287.45
2018-07-30T06:27:56.243Z,100287.41
2018-07-30T06:30:26.156Z,100295.03
2018-07-30T06:32:55.667Z,100300.55
2018-07-30T06:35:25.445Z,100300.48
2018-07-30T06:37:55.028Z,100305.27
2018-07-30T06:40:25.407Z,100299.32
2018-07-30T06:42:55.140Z,100310.45
2018-07-30T06:45:24.852Z,100307.83
2018-07-30T06:47:54.572Z,100311.31
2018-07-30T06:50:24.272Z,100311.30
2018-07-30T06:52:54.096Z,100308.51
2018-07-30T06:55:23.755Z,100315.86
2018-07-30T06:57:53.409Z,100312.07
2018-07-30T07:00:23.305Z,100309.90
2018-07-30T07:02:53.920Z,100320.45
2018-07-30T07:05:23.981Z,100317.55
2018-07-30T07:07:54.047Z,100319.16
2018-07-30T07:10:23.941Z,100321.08
2018-07-30T07:12:53.794Z,100319.70
2018-07-30T07:15:23.623Z,100323.52
2018-07-30T07:17:53.367Z,100323.80
2018-07-30T07:20:22.953Z,100325.73
2018-07-30T07:22:53.400Z,100329.99
2018-07-30T07:25:23.271Z,100330.70
2018-07-30T07:27:53.141Z,100335.55
2018-07-30T07:30:23.327Z,100326.41
2018-07-30T07:32:53.586Z,100324.87
2018-07-30T07:35:23.232Z,100327.56
2018-07-30T07:37:53.154Z,100332.00
2018-07-30T07:40:22.970Z,100326.67
2018-07-30T07:42:52.529Z,100328.64
2018-07-30T07:45:22.364Z,100339.34
2018-07-30T07:47:52.022Z,100332.62
2018-07-30T07:50:21.855Z,100341.38
2018-07-30T07:52:51.433Z,100342.91
2018-07-30T07:55:21.225Z,100339.20
2018-07-30T07:57:51.167Z,100347.55
2018-07-30T08:00:20.945Z,100332.45
2018-07-30T08:02:50.773Z,100339.88
2018-07-30T08:05:20.404Z,100336.77
2018-07-30T08:07:50.192Z,100334.66
2018-07-30T08:10:20.561Z,100332.61
2018-07-30T08:12:50.524Z,100338.63
2018-07-30T08:15:20.233Z,100336.03
2018-07-30T08:17:49.970Z,100332.20
2018-07-30T08:20:19.575Z,100337.62
2018-07-30T08:22:50.162Z,100329.93
2018-07-30T08:25:19.963Z,100343.38
2018-07-30T08:27:50.246Z,100337.69
2018-07-30T08:30:19.870Z,100342.95
2018-07-30T08:32:49.658Z,100342.33
2018-07-30T08:35:19.260Z,100342.87
2018-07-30T08:37:49.037Z,100338.05
2018-07-30T08:40:18.836Z,100338.80
2018-07-30T08:42:48.468Z,100343.37
2018-07-30T08:45:18.199Z,100340.75
2018-07-30T08:47:47.979Z,100346.81
2018-07-30T08:50:17.810Z,100346.67
2018-07-30T08:52:47.529Z,100345.04
2018-07-30T08:55:17.375Z,100334.57
2018-07-30T08:57:47.136Z,100336.97
2018-07-30T09:00:19.015Z,100343.22
2018-07-30T09:02:49.715Z,100339.63
2018-07-30T09:05:20.268Z,100339.66
2018-07-30T09:07:50.191Z,100341.91
2018-07-30T09:10:19.924Z,100345.31
2018-07-30T09:12:50.715Z,100345.72
2018-07-30T09:15:20.170Z,100341.29
2018-07-30T09:17:49.848Z,100330.98
2018-07-30T09:20:19.490Z,100327.16
2018-07-30T09:22:49.163Z,100325.36
2018-07-30T09:25:18.953Z,100329.45
2018-07-30T09:27:48.687Z,100332.81
2018-07-30T09:30:18.569Z,100335.45
2018-07-30T09:32:48.365Z,100336.75
2018-07-30T09:35:18.227Z,100336.04
2018-07-30T09:37:47.929Z,100331.41
2018-07-30T09:40:24.610Z,100328.13
2018-07-30T09:42:54.748Z,100327.80
2018-07-30T09:45:25.191Z,100333.92
2018-07-30T09:47:54.855Z,100329.34
2018-07-30T09:50:25.760Z,100333.47
2018-07-30T09:52:55.706Z,100321.50
2018-07-30T09:55:25.562Z,100323.65
2018-07-30T09:57:55.246Z,100329.53
2018-07-30T10:00:29.649Z,100319.95
2018-07-30T10:02:59.564Z,100316.62
2018-07-30T10:05:29.487Z,100321.40
2018-07-30T10:07:59.290Z,100322.77
2018-07-30T10:10:29.993Z,100319.67
2018-07-30T10:12:59.679Z,100307.92
2018-07-30T10:15:30.195Z,100313.61
2018-07-30T10:18:00.461Z,100307.09
2018-07-30T10:20:30.484Z,100306.77
2018-07-30T10:23:00.327Z,100308.85
2018-07-30T10:25:30.229Z,100302.04
2018-07-30T10:28:00.200Z,100308.84
2018-07-30T10:30:30.078Z,100309.27
2018-07-30T10:33:00.668Z,100295.77
2018-07-30T10:35:30.924Z,100305.72
2018-07-30T10:38:00.701Z,100307.06
2018-07-30T10:40:31.341Z,100305.06
2018-07-30T10:43:01.183Z,100294.72
2018-07-30T10:45:31.660Z,100296.48
2018-07-30T10:48:01.593Z,100291.34
2018-07-30T10:50:31.315Z,100291.00
2018-07-30T10:53:01.906Z,100291.41
2018-07-30T10:55:32.446Z,100292.59
2018-07-30T10:58:02.139Z,100288.75
2018-07-30T11:00:31.943Z,100289.41
2018-07-30T11:03:05.633Z,100285.15
2018-07-30T11:05:35.252Z,100285.10
2018-07-30T11:08:05.740Z,100273.93
2018-07-30T11:10:36.859Z,100282.94
2018-07-30T11:13:06.714Z,100277.70
2018-07-30T11:15:37.099Z,100282.31
2018-07-30T11:18:07.221Z,100281.31
2018-07-30T11:20:36.877Z,100278.65
2018-07-30T11:23:06.706Z,100282.13
2018-07-30T11:25:36.879Z,100279.92
2018-07-30T11:28:06.690Z,100271.63
2018-07-30T11:30:36.305Z,100271.66
2018-07-30T11:33:06.425Z,100280.09
2018-07-30T11:35:36.387Z,100275.71
2018-07-30T11:38:06.056Z,100267.07
2018-07-30T11:40:36.320Z,100270.05
2018-07-30T11:43:06.039Z,100253.11
2018-07-30T11:45:35.698Z,100272.58
2018-07-30T11:48:05.799Z,100275.72
2018-07-30T11:50:35.850Z,100264.37
2018-07-30T11:53:05.584Z,100265.28
2018-07-30T11:55:35.193Z,100268.20
2018-07-30T11:58:05.143Z,100261.09
2018-07-30T12:00:34.924Z,100260.73
2018-07-30T12:03:04.883Z,100267.55
2018-07-30T12:05:35.161Z,100261.03
2018-07-30T12:08:05.412Z,100250.39
2018-07-30T12:10:35.200Z,100256.39
2018-07-30T12:13:05.362Z,100261.09
2018-07-30T12:15:35.234Z,100250.50
2018-07-30T12:18:05.084Z,100249.04
2018-07-30T12:20:34.681Z,100246.11
2018-07-30T12:23:04.397Z,100247.60
2018-07-30T12:25:34.026Z,100240.51
2018-07-30T12:28:05.049Z,100235.61
2018-07-30T12:30:35.091Z,100242.09
2018-07-30T12:33:05.413Z,100244.38
2018-07-30T12:35:35.140Z,100231.88
2018-07-30T12:38:04.829Z,100234.02
2018-07-30T12:40:35.945Z,100228.19
2018-07-30T12:43:06.240Z,100233.25
2018-07-30T12:45:41.216Z,100230.66
2018-07-30T12:48:11.787Z,100227.67
2018-07-30T12:50:41.923Z,100233.17
2018-07-30T12:53:11.706Z,100225.29
2018-07-30T12:55:41.707Z,100222.03
2018-07-30T12:58:11.415Z,100224.45
2018-07-30T13:00:41.809Z,100223.25
2018-07-30T13:03:11.715Z,100221.95
2018-07-30T13:05:41.455Z,100228.02
2018-07-30T13:08:11.730Z,100219.27
2018-07-30T13:10:41.892Z,100216.71
2018-07-30T13:13:12.099Z,100207.80
2018-07-30T13:15:42.454Z,100215.11
2018-07-30T13:18:12.115Z,100219.47
2018-07-30T13:20:42.008Z,100212.88
2018-07-30T13:23:12.464Z,100208.16
2018-07-30T13:25:42.542Z,100208.98
2018-07-30T13:28:12.413Z,100209.67
2018-07-30T13:30:41.929Z,100210.63
2018-07-30T13:33:11.704Z,100203.23
2018-07-30T13:35:41.252Z,100195.05
2018-07-30T13:38:11.201Z,100193.80
2018-07-30T13:40:41.081Z,100188.80
2018-07-30T13:43:11.560Z,100199.70
2018-07-30T13:45:41.383Z,119786.55
2018-07-30T13:49:53.761Z,119786.55
2018-07-30T13:52:32.988Z,119786.55
2018-07-30T14:03:09.831Z,119786.55
2018-07-30T14:05:39.772Z,100189.28
2018-07-30T14:08:09.547Z,100183.08
2018-07-30T14:10:39.395Z,100185.17
2018-07-30T14:13:09.499Z,100180.38
2018-07-30T14:15:39.507Z,100184.02
2018-07-30T14:18:09.289Z,100188.58
2018-07-30T14:20:39.244Z,100184.55
2018-07-30T14:23:09.968Z,100179.39
2018-07-30T14:25:39.678Z,100175.77
2018-07-30T14:28:09.452Z,100179.41
2018-07-30T14:30:39.363Z,100176.77
2018-07-30T14:33:09.283Z,100172.71
2018-07-30T14:35:39.110Z,100176.80
2018-07-30T14:38:09.371Z,100175.53
2018-07-30T14:40:40.476Z,100176.50
2018-07-30T14:43:10.614Z,100169.67
2018-07-30T14:45:40.504Z,100171.51
2018-07-30T14:48:10.156Z,100171.48
2018-07-30T14:50:39.962Z,100166.41
2018-07-30T14:53:09.824Z,100171.59
2018-07-30T14:55:41.188Z,100162.55
2018-07-30T14:58:11.157Z,100165.75
2018-07-30T15:00:41.088Z,100156.18
2018-07-30T15:03:11.266Z,100155.55
2018-07-30T15:05:42.338Z,100159.31
2018-07-30T15:08:12.371Z,100158.55
2018-07-30T15:10:42.370Z,100158.24
2018-07-30T15:13:12.953Z,100152.63
2018-07-30T15:15:42.757Z,100157.02
2018-07-30T15:18:12.638Z,100151.11
2018-07-30T15:20:42.755Z,100150.83
2018-07-30T15:23:12.675Z,100150.64
2018-07-30T15:25:42.566Z,100143.34
2018-07-30T15:28:12.684Z,100151.14
2018-07-30T15:30:42.611Z,100147.14
2018-07-30T15:33:12.289Z,100148.80
2018-07-30T15:35:42.315Z,100139.31
2018-07-30T15:38:12.360Z,100150.31
2018-07-30T15:40:42.339Z,100149.03
2018-07-30T15:43:12.503Z,100154.63
2018-07-30T15:45:42.585Z,100150.48
2018-07-30T15:48:12.718Z,100149.06
2018-07-30T15:50:42.505Z,100145.52
2018-07-30T15:53:12.499Z,100149.89
2018-07-30T15:55:42.170Z,100149.24
2018-07-30T15:58:12.887Z,100149.70
2018-07-30T16:00:42.811Z,100151.11
2018-07-30T16:03:13.133Z,100150.17
2018-07-30T16:05:43.123Z,100147.38
2018-07-30T16:08:12.900Z,100144.14
2018-07-30T16:10:49.369Z,100150.39
2018-07-30T16:13:19.145Z,100147.91
2018-07-30T16:15:48.936Z,100157.18
2018-07-30T16:18:19.081Z,100151.70
2018-07-30T16:20:48.760Z,100151.66
2018-07-30T16:23:18.549Z,100148.35
2018-07-30T16:25:48.199Z,100149.86
2018-07-30T16:28:17.922Z,100138.47
2018-07-30T16:30:48.259Z,100144.97
2018-07-30T16:33:18.255Z,100146.96
2018-07-30T16:35:48.075Z,100141.45
2018-07-30T16:38:17.787Z,100137.92
2018-07-30T16:40:47.760Z,100145.75
2018-07-30T16:43:17.402Z,100143.44
2018-07-30T16:45:47.323Z,100136.09
2018-07-30T16:48:17.869Z,100139.53
2018-07-30T16:50:47.751Z,100133.08
2018-07-30T16:53:18.203Z,100133.91
2018-07-30T16:55:48.644Z,100133.50
2018-07-30T16:58:18.383Z,100128.12
2018-07-30T17:00:48.072Z,100131.05
2018-07-30T17:03:17.784Z,100136.97
2018-07-30T17:05:47.489Z,100142.70
2018-07-30T17:08:17.226Z,100146.27
2018-07-30T17:10:47.630Z,100137.19
2018-07-30T17:13:17.328Z,100145.30
2018-07-30T17:15:47.064Z,100143.28
2018-07-30T17:18:16.823Z,100145.23
2018-07-30T17:20:46.571Z,100148.98
2018-07-30T17:23:16.272Z,100154.21
2018-07-30T17:25:46.057Z,100153.06
2018-07-30T17:28:16.035Z,100163.13
2018-07-30T17:30:46.811Z,100161.94
2018-07-30T17:33:16.587Z,100159.59
2018-07-30T17:35:46.625Z,100157.33
2018-07-30T17:38:16.508Z,100163.39
2018-07-30T17:40:47.033Z,100168.52
2018-07-30T17:43:17.118Z,100166.42
2018-07-30T17:45:49.293Z,100164.97
2018-07-30T17:48:19.217Z,100163.68
2018-07-30T17:50:49.682Z,100166.98
2018-07-30T17:53:19.396Z,100163.09
2018-07-30T17:55:49.215Z,100152.95
2018-07-30T17:58:19.010Z,100154.70
2018-07-30T18:00:49.345Z,100151.66
2018-07-30T18:03:19.092Z,100153.24
2018-07-30T18:05:49.410Z,100159.75
2018-07-30T18:08:19.876Z,100155.50
2018-07-30T18:10:49.534Z,100156.38
2018-07-30T18:13:19.249Z,100158.61
2018-07-30T18:15:49.190Z,100159.30
2018-07-30T18:18:18.982Z,100162.47
2018-07-30T18:20:48.831Z,100159.00
2018-07-30T18:23:18.639Z,100164.53
2018-07-30T18:25:48.357Z,100163.71
2018-07-30T18:28:18.209Z,100166.60
2018-07-30T18:30:47.987Z,100158.84
2018-07-30T18:33:17.779Z,100163.03
2018-07-30T18:35:47.707Z,100162.64
2018-07-30T18:38:18.300Z,100165.45
2018-07-30T18:40:48.168Z,100162.61
2018-07-30T18:43:17.892Z,100161.41
2018-07-30T18:45:47.645Z,100161.88
2018-07-30T18:48:18.027Z,100164.98
2018-07-30T18:50:48.003Z,100165.14
2018-07-30T18:53:17.868Z,100163.13
2018-07-30T18:55:48.118Z,100162.96
2018-07-30T18:58:18.202Z,100165.53
2018-07-30T19:00:48.245Z,100167.97
2018-07-30T19:03:18.186Z,100161.61
2018-07-30T19:05:48.156Z,100167.09
2018-07-30T19:08:17.998Z,100171.32
2018-07-30T19:10:47.769Z,100167.69
2018-07-30T19:13:17.820Z,100170.02
2018-07-30T19:15:47.609Z,100171.95
2018-07-30T19:18:17.520Z,100166.94
2018-07-30T19:20:48.166Z,100177.23
2018-07-30T19:23:18.482Z,100175.85
2018-07-30T19:25:49.094Z,100178.41
2018-07-30T19:28:19.221Z,100179.75
2018-07-30T19:30:49.575Z,100184.69
2018-07-30T19:33:20.457Z,100185.11
2018-07-30T19:35:51.306Z,100177.65
2018-07-30T19:38:21.094Z,100189.50
2018-07-30T19:40:51.020Z,100190.52
2018-07-30T19:43:21.273Z,100183.79
2018-07-30T19:45:51.423Z,100188.73
2018-07-30T19:48:21.335Z,100190.53
2018-07-30T19:50:51.140Z,100191.55
2018-07-30T19:53:20.801Z,100197.80
2018-07-30T19:55:50.783Z,100197.42
2018-07-30T19:58:21.087Z,100199.08
2018-07-30T20:00:50.656Z,100201.80
2018-07-30T20:03:20.476Z,100201.09
2018-07-30T20:05:50.144Z,100202.00
2018-07-30T20:08:20.875Z,100201.66
2018-07-30T20:10:50.781Z,100202.28
2018-07-30T20:13:20.571Z,100204.03
2018-07-30T20:15:50.450Z,100203.61
2018-07-30T20:18:20.492Z,100209.33
2018-07-30T20:20:50.788Z,100210.95
2018-07-30T20:23:20.627Z,100211.56
2018-07-30T20:25:50.720Z,100216.13
2018-07-30T20:28:21.134Z,100221.18
2018-07-30T20:30:51.511Z,100218.17
2018-07-30T20:33:21.487Z,100215.52
2018-07-30T20:35:51.597Z,100221.43
2018-07-30T20:38:21.223Z,100220.88
2018-07-30T20:40:51.224Z,100222.12
2018-07-30T20:43:21.102Z,100223.98
2018-07-30T20:45:51.188Z,100224.37
2018-07-30T20:48:21.491Z,100223.80
2018-07-30T20:50:51.713Z,100224.34
2018-07-30T20:53:21.364Z,100222.07
2018-07-30T20:55:51.430Z,100227.02
2018-07-30T20:58:21.129Z,100223.80
2018-07-30T21:00:51.494Z,100223.42
2018-07-30T21:03:22.552Z,100223.55
2018-07-30T21:05:52.516Z,100227.76
2018-07-30T21:08:22.741Z,100226.44
2018-07-30T21:10:52.506Z,100227.11
2018-07-30T21:13:23.147Z,100225.98
2018-07-30T21:15:52.968Z,100225.98
2018-07-30T21:18:23.343Z,100228.80
2018-07-30T21:20:53.188Z,100224.88
2018-07-30T21:23:22.883Z,100221.89
2018-07-30T21:25:53.666Z,100224.38
2018-07-30T21:28:23.401Z,100224.22
2018-07-30T21:30:53.047Z,100223.10
2018-07-30T21:33:22.737Z,100227.27
2018-07-30T21:35:52.610Z,100224.94
2018-07-30T21:38:22.300Z,100222.78
2018-07-30T21:40:52.039Z,100222.91
2018-07-30T21:43:22.039Z,100223.25
2018-07-30T21:45:51.809Z,100223.89
2018-07-30T21:48:21.522Z,100227.74
2018-07-30T21:50:51.390Z,100227.06
2018-07-30T21:53:21.978Z,100222.56
2018-07-30T21:55:52.488Z,100224.61
2018-07-30T21:58:22.814Z,100223.13
2018-07-30T22:00:58.485Z,100225.39
2018-07-30T22:03:28.238Z,100221.94
2018-07-30T22:05:59.321Z,100216.36
2018-07-30T22:08:31.036Z,100227.55
2018-07-30T22:11:01.210Z,100223.40
2018-07-30T22:13:31.983Z,100222.88
2018-07-30T22:16:01.766Z,100223.69
2018-07-30T22:18:33.202Z,100225.50
2018-07-30T22:21:02.808Z,100225.36
2018-07-30T22:23:35.591Z,100228.80
2018-07-30T22:26:07.310Z,100223.48
2018-07-30T22:28:37.499Z,100224.73
2018-07-30T22:31:08.109Z,100220.64
2018-07-30T22:33:37.829Z,100224.31
2018-07-30T22:36:07.546Z,100222.00
2018-07-30T22:38:37.473Z,100227.00
2018-07-30T22:41:07.513Z,100225.02
2018-07-30T22:43:37.823Z,100222.64
2018-07-30T22:46:07.782Z,100224.66
2018-07-30T22:48:38.104Z,100226.78
2018-07-30T22:51:08.147Z,100220.28
2018-07-30T22:53:38.788Z,100224.38
2018-07-30T22:56:08.500Z,100221.55
2018-07-30T22:58:38.294Z,100217.33
2018-07-30T23:01:09.145Z,100219.02
2018-07-30T23:03:38.987Z,100214.83
2018-07-30T23:06:09.137Z,100214.32
2018-07-30T23:08:39.779Z,100208.72
2018-07-30T23:11:09.832Z,100207.54
2018-07-30T23:13:39.645Z,100208.84
2018-07-30T23:16:09.828Z,100205.34
2018-07-30T23:18:39.649Z,100205.70
2018-07-30T23:21:09.799Z,100203.72
2018-07-30T23:23:40.164Z,100205.22
2018-07-30T23:26:10.089Z,100199.58
2018-07-30T23:28:39.961Z,100200.80
2018-07-30T23:31:09.690Z,100197.13
2018-07-30T23:33:40.744Z,100199.44
2018-07-30T23:36:10.656Z,100185.58
2018-07-30T23:38:41.337Z,100184.66
2018-07-30T23:41:11.145Z,100186.72
2018-07-30T23:43:41.494Z,100183.17
2018-07-30T23:46:11.212Z,100178.24
2018-07-30T23:48:41.847Z,100181.50
2018-07-30T23:51:12.118Z,100188.55
2018-07-30T23:53:41.992Z,100183.19
2018-07-30T23:56:11.722Z,100186.34
2018-07-30T23:58:41.802Z,100184.98
